Time;durP1;ratioP1;P1;durP2;ratioP2;P2;SDS_P1;SDS_P2;PMS_P1;PMS_P2;Temp;Humidity;BMP_temperature;BMP_pressure;BME280_temperature;BME280_humidity;BME280_pressure;Samples;Min_cycle;Max_cycle;Signal;HPM_P1;HPM_P2
2022/12/04 00:00:26;;;;;;;27.30;17.50;;;3.20;99.90;;;;;;5053750;28;20498;-59
2022/12/04 00:02:53;;;;;;;26.63;15.83;;;3.20;99.90;;;;;;5053543;28;20449;-59
2022/12/04 00:05:20;;;;;;;28.57;19.00;;;3.10;99.90;;;;;;5053553;28;20476;-59
2022/12/04 00:07:49;;;;;;;28.60;18.03;;;3.10;99.90;;;;;;5053628;28;20453;-59
2022/12/04 00:10:17;;;;;;;25.80;18.43;;;3.10;99.90;;;;;;5053211;28;20449;-59
2022/12/04 00:12:44;;;;;;;24.03;15.80;;;3.00;99.90;;;;;;5053359;28;20449;-59
2022/12/04 00:15:11;;;;;;;27.50;17.80;;;3.10;99.90;;;;;;5053449;28;20485;-59
2022/12/04 00:17:39;;;;;;;22.80;15.50;;;3.10;99.90;;;;;;5053241;28;20445;-59
2022/12/04 00:20:08;;;;;;;28.40;17.53;;;3.00;99.90;;;;;;5053223;28;20476;-59
2022/12/04 00:22:35;;;;;;;29.80;18.37;;;3.00;99.90;;;;;;5053553;28;20500;-59
2022/12/04 00:25:04;;;;;;;26.17;17.40;;;3.20;99.90;;;;;;5053166;28;20453;-59
2022/12/04 00:27:32;;;;;;;24.90;17.30;;;3.20;99.90;;;;;;5053182;28;20905;-59
2022/12/04 00:30:04;;;;;;;25.77;17.73;;;3.10;99.90;;;;;;5053188;28;20452;-59
2022/12/04 00:32:32;;;;;;;26.30;18.50;;;3.00;99.90;;;;;;5053225;28;20544;-61
2022/12/04 00:34:59;;;;;;;22.43;15.47;;;3.00;99.90;;;;;;5053208;28;20473;-59
2022/12/04 00:37:27;;;;;;;21.40;16.40;;;3.00;99.90;;;;;;5052758;28;20507;-59
2022/12/04 00:39:54;;;;;;;25.90;18.57;;;3.10;99.90;;;;;;5053078;28;20449;-59
2022/12/04 00:42:23;;;;;;;24.17;15.97;;;3.10;99.90;;;;;;5053031;28;20452;-59
2022/12/04 00:44:50;;;;;;;24.30;16.77;;;3.20;99.90;;;;;;5053325;28;20441;-59
2022/12/04 00:47:18;;;;;;;24.97;15.67;;;3.20;99.90;;;;;;5053114;28;20453;-59
2022/12/04 00:49:45;;;;;;;21.33;14.80;;;3.20;99.90;;;;;;5053281;28;20453;-59
2022/12/04 00:52:12;;;;;;;23.00;15.20;;;3.20;99.90;;;;;;5053143;28;20464;-59
2022/12/04 00:54:40;;;;;;;23.40;14.60;;;3.10;99.90;;;;;;5052898;28;20976;-59
2022/12/04 00:57:07;;;;;;;25.83;15.47;;;3.10;99.90;;;;;;5052775;28;20481;-59
2022/12/04 00:59:37;;;;;;;26.00;16.50;;;3.20;99.90;;;;;;5053257;28;20483;-59
2022/12/04 01:02:05;;;;;;;23.63;16.00;;;3.20;99.90;;;;;;5052721;28;20862;-59
2022/12/04 01:04:32;;;;;;;24.00;15.10;;;3.20;99.90;;;;;;5052858;28;20824;-59
2022/12/04 01:06:59;;;;;;;21.67;14.40;;;3.30;99.90;;;;;;5052612;28;20465;-59
2022/12/04 01:09:27;;;;;;;24.20;15.30;;;3.30;99.90;;;;;;5052920;28;20453;-59
2022/12/04 01:11:54;;;;;;;28.23;15.33;;;3.30;99.90;;;;;;5052613;28;20502;-59
2022/12/04 01:14:21;;;;;;;22.43;15.53;;;3.20;99.90;;;;;;5052960;28;20476;-59
2022/12/04 01:16:50;;;;;;;20.73;14.57;;;3.10;99.90;;;;;;5052516;28;20478;-59
2022/12/04 01:19:18;;;;;;;23.73;15.03;;;3.10;99.90;;;;;;5052644;28;20978;-59
2022/12/04 01:21:45;;;;;;;21.23;14.20;;;3.10;99.90;;;;;;5052643;28;20982;-59
2022/12/04 01:24:12;;;;;;;24.63;15.83;;;3.10;99.90;;;;;;5052862;28;20477;-59
2022/12/04 01:26:40;;;;;;;20.53;14.83;;;3.20;99.90;;;;;;5052421;28;20477;-59
2022/12/04 01:29:07;;;;;;;26.40;14.63;;;3.30;99.90;;;;;;5052832;28;20499;-59
2022/12/04 01:31:34;;;;;;;23.53;15.73;;;3.40;99.90;;;;;;5052804;28;20460;-59
2022/12/04 01:34:03;;;;;;;21.37;15.30;;;3.40;99.90;;;;;;5052914;28;20449;-59
2022/12/04 01:36:31;;;;;;;21.03;15.20;;;3.40;99.90;;;;;;5052262;28;20485;-59
2022/12/04 01:38:58;;;;;;;24.03;15.63;;;3.40;99.90;;;;;;5052557;28;20449;-59
2022/12/04 01:41:29;;;;;;;24.20;16.77;;;3.30;99.90;;;;;;5052661;28;20457;-59
2022/12/04 01:44:08;;;;;;;21.67;14.47;;;3.40;99.90;;;;;;5052805;28;20429;-59
2022/12/04 01:46:36;;;;;;;19.13;14.03;;;3.40;99.90;;;;;;5052550;28;20477;-59
2022/12/04 01:49:06;;;;;;;23.03;14.57;;;3.40;99.90;;;;;;5052455;28;20449;-59
2022/12/04 01:51:36;;;;;;;23.83;15.63;;;3.40;99.90;;;;;;5055930;28;20839;-59
2022/12/04 01:54:08;;;;;;;22.47;15.00;;;3.30;99.90;;;;;;5056269;28;20812;-59
2022/12/04 01:56:43;;;;;;;27.13;17.03;;;3.40;99.90;;;;;;5055980;28;20957;-59
2022/12/04 01:59:12;;;;;;;24.47;14.53;;;3.40;99.90;;;;;;5056199;28;20601;-59
2022/12/04 02:01:50;;;;;;;19.90;14.67;;;3.40;99.90;;;;;;5056123;28;20856;-59
2022/12/04 02:04:18;;;;;;;19.73;14.87;;;3.50;99.90;;;;;;5055649;28;20472;-61
2022/12/04 02:06:46;;;;;;;21.47;14.40;;;3.50;99.90;;;;;;5055678;28;20975;-60
2022/12/04 02:09:13;;;;;;;16.30;13.13;;;3.50;99.90;;;;;;5055544;28;20450;-59
2022/12/04 02:11:46;;;;;;;21.40;15.60;;;3.50;99.90;;;;;;5055964;28;20452;-60
2022/12/04 02:14:23;;;;;;;21.77;14.13;;;3.50;99.90;;;;;;5055708;28;20483;-60
2022/12/04 02:16:57;;;;;;;19.27;14.10;;;3.50;99.90;;;;;;5055756;28;20496;-60
2022/12/04 02:19:49;;;;;;;20.60;14.40;;;3.60;99.90;;;;;;5055709;28;20430;-60
2022/12/04 02:22:30;;;;;;;18.03;14.20;;;3.50;99.90;;;;;;5055400;28;20434;-60
2022/12/04 02:25:07;;;;;;;20.43;15.37;;;3.40;99.90;;;;;;5055346;28;20540;-60
2022/12/04 02:27:58;;;;;;;20.90;14.30;;;3.40;99.90;;;;;;5055331;28;20433;-61
2022/12/04 02:30:29;;;;;;;24.00;14.70;;;3.50;99.90;;;;;;5055589;28;20433;-60
2022/12/04 02:33:04;;;;;;;21.70;14.60;;;3.40;99.90;;;;;;5055065;28;20437;-60
2022/12/04 02:35:36;;;;;;;21.47;15.13;;;3.30;99.90;;;;;;5055104;28;20489;-60
2022/12/04 02:38:12;;;;;;;25.90;14.93;;;3.30;99.90;;;;;;5055352;28;20446;-60
2022/12/04 02:40:46;;;;;;;23.07;16.90;;;3.30;99.90;;;;;;5055395;28;20448;-60
2022/12/04 02:43:18;;;;;;;23.83;15.77;;;3.30;99.90;;;;;;5055262;28;20441;-60
2022/12/04 02:45:51;;;;;;;27.30;15.33;;;3.30;99.90;;;;;;5054962;28;20968;-60
2022/12/04 02:48:20;;;;;;;18.23;14.90;;;3.30;99.90;;;;;;5054985;28;20472;-60
2022/12/04 02:50:52;;;;;;;22.73;15.13;;;3.30;99.90;;;;;;5055050;28;20453;-60
2022/12/04 02:53:25;;;;;;;21.30;15.57;;;3.30;99.90;;;;;;5055185;28;20422;-60
2022/12/04 02:55:55;;;;;;;21.97;14.60;;;3.20;99.90;;;;;;5054927;28;20489;-60
2022/12/04 02:58:29;;;;;;;22.97;15.10;;;3.20;99.90;;;;;;5055041;28;20853;-60
2022/12/04 03:01:00;;;;;;;22.10;15.63;;;3.30;99.90;;;;;;5054833;28;20499;-60
2022/12/04 03:03:30;;;;;;;21.10;15.47;;;3.30;99.90;;;;;;5054973;28;20437;-60
2022/12/04 03:06:00;;;;;;;19.77;15.60;;;3.30;99.90;;;;;;5054617;28;21015;-60
2022/12/04 03:08:34;;;;;;;22.30;14.03;;;3.30;99.90;;;;;;5054856;28;20448;-60
2022/12/04 03:11:02;;;;;;;25.23;15.30;;;3.30;99.90;;;;;;5054684;28;20449;-59
2022/12/04 03:13:36;;;;;;;20.00;14.20;;;3.40;99.90;;;;;;5054514;28;20965;-60
2022/12/04 03:16:08;;;;;;;23.07;16.20;;;3.40;99.90;;;;;;5054374;28;20487;-60
2022/12/04 03:18:40;;;;;;;25.70;15.40;;;3.40;99.90;;;;;;5054671;28;20438;-59
2022/12/04 03:21:11;;;;;;;21.23;15.10;;;3.40;99.90;;;;;;5054693;28;20433;-59
2022/12/04 03:23:44;;;;;;;20.80;14.97;;;3.50;99.90;;;;;;5054161;28;20434;-60
2022/12/04 03:26:18;;;;;;;23.43;16.10;;;3.50;99.90;;;;;;5053871;28;20909;-60
2022/12/04 03:28:54;;;;;;;23.43;17.47;;;3.40;99.90;;;;;;5054361;28;20433;-60
2022/12/04 03:31:26;;;;;;;21.43;15.07;;;3.40;99.90;;;;;;5054174;28;20505;-60
2022/12/04 03:33:57;;;;;;;23.87;15.67;;;3.40;99.90;;;;;;5054126;28;20533;-60
2022/12/04 03:36:29;;;;;;;20.93;15.77;;;3.30;99.90;;;;;;5053817;28;20489;-60
2022/12/04 03:39:02;;;;;;;26.43;18.30;;;3.30;99.90;;;;;;5054354;28;20465;-60
2022/12/04 03:41:37;;;;;;;26.90;16.17;;;3.30;99.90;;;;;;5053831;28;20433;-60
2022/12/04 03:44:12;;;;;;;21.90;14.70;;;3.30;99.90;;;;;;5054223;28;20441;-60
2022/12/04 03:46:44;;;;;;;26.23;17.50;;;3.40;99.90;;;;;;5053960;28;20469;-60
2022/12/04 03:49:16;;;;;;;21.97;16.33;;;3.40;99.90;;;;;;5053860;28;20438;-60
2022/12/04 03:51:48;;;;;;;25.83;17.50;;;3.40;99.90;;;;;;5054123;28;20767;-60
2022/12/04 03:54:20;;;;;;;29.30;17.70;;;3.40;99.90;;;;;;5053533;28;20441;-60
2022/12/04 03:56:51;;;;;;;24.13;18.30;;;3.50;99.90;;;;;;5053757;28;20480;-60
2022/12/04 03:59:26;;;;;;;27.00;17.17;;;3.50;99.90;;;;;;5053758;28;20464;-61
2022/12/04 04:01:58;;;;;;;22.03;16.47;;;3.50;99.90;;;;;;5053695;28;20900;-60
2022/12/04 04:04:30;;;;;;;25.17;18.40;;;3.40;99.90;;;;;;5053455;28;20445;-60
2022/12/04 04:07:03;;;;;;;31.27;17.80;;;3.40;99.90;;;;;;5053767;28;20461;-60
2022/12/04 04:09:35;;;;;;;25.60;18.60;;;3.40;99.90;;;;;;5053496;28;20434;-60
2022/12/04 04:12:06;;;;;;;24.40;17.13;;;3.40;99.90;;;;;;5053271;28;20507;-60
2022/12/04 04:25:53;;;;;;;27.30;18.13;;;3.40;99.90;;;;;;5053209;28;20476;-60
2022/12/04 04:28:29;;;;;;;24.70;16.80;;;3.40;99.90;;;;;;5053141;28;20505;-59
2022/12/04 04:31:07;;;;;;;28.90;18.70;;;3.40;99.90;;;;;;5053025;28;20452;-60
2022/12/04 04:33:39;;;;;;;29.33;19.00;;;3.50;99.90;;;;;;5053554;28;20433;-60
2022/12/04 04:36:12;;;;;;;23.90;16.70;;;3.50;99.90;;;;;;5053020;28;21055;-59
2022/12/04 04:38:44;;;;;;;27.00;18.30;;;3.50;99.90;;;;;;5053455;28;20483;-60
2022/12/04 04:41:16;;;;;;;26.67;16.80;;;3.50;99.90;;;;;;5053301;28;20438;-60
2022/12/04 04:43:50;;;;;;;26.53;17.83;;;3.50;99.90;;;;;;5053153;28;20433;-60
2022/12/04 04:46:24;;;;;;;28.80;18.70;;;3.40;99.90;;;;;;5053004;28;20456;-60
2022/12/04 04:48:55;;;;;;;28.40;17.50;;;3.30;99.90;;;;;;5052904;28;20437;-60
2022/12/04 04:51:22;;;;;;;23.77;16.30;;;3.30;99.90;;;;;;5053320;28;20438;-60
2022/12/04 04:53:53;;;;;;;25.60;17.50;;;3.40;99.90;;;;;;5053101;28;20499;-60
2022/12/04 04:56:21;;;;;;;25.37;16.77;;;3.50;99.90;;;;;;5053324;28;20596;-59
2022/12/04 04:58:48;;;;;;;24.80;15.20;;;3.60;99.90;;;;;;5052732;28;20451;-60
2022/12/04 05:01:20;;;;;;;30.10;20.13;;;3.50;99.90;;;;;;5053207;28;20453;-60
2022/12/04 05:03:48;;;;;;;22.60;15.93;;;3.40;99.90;;;;;;5053205;28;20426;-60
2022/12/04 05:06:15;;;;;;;27.30;17.53;;;3.30;99.90;;;;;;5053049;28;20461;-60
2022/12/04 05:08:43;;;;;;;21.73;16.30;;;3.30;99.90;;;;;;5052674;28;20445;-60
2022/12/04 05:11:13;;;;;;;21.33;16.47;;;3.30;99.90;;;;;;5052765;28;20928;-60
2022/12/04 05:13:41;;;;;;;26.03;17.70;;;3.40;99.90;;;;;;5052647;28;20445;-60
2022/12/04 05:16:12;;;;;;;25.70;15.30;;;3.40;99.90;;;;;;5052977;28;20538;-60
2022/12/04 05:18:42;;;;;;;22.80;16.50;;;3.40;99.90;;;;;;5052946;28;20487;-59
2022/12/04 05:21:14;;;;;;;23.23;16.10;;;3.40;99.90;;;;;;5053061;28;20473;-60
2022/12/04 05:23:42;;;;;;;26.23;16.37;;;3.30;99.90;;;;;;5052582;28;20430;-59
2022/12/04 05:26:11;;;;;;;21.80;13.50;;;3.30;99.90;;;;;;5055812;28;20488;-60
2022/12/04 05:28:39;;;;;;;28.67;17.93;;;3.30;99.90;;;;;;5056527;28;20453;-60
2022/12/04 05:31:07;;;;;;;25.10;15.10;;;3.30;99.90;;;;;;5056759;28;20488;-60
2022/12/04 05:33:34;;;;;;;22.10;15.23;;;3.20;99.90;;;;;;5056273;28;20445;-60
2022/12/04 05:36:06;;;;;;;25.03;16.00;;;3.30;99.90;;;;;;5056198;28;20489;-60
2022/12/04 05:38:34;;;;;;;23.90;15.67;;;3.30;99.90;;;;;;5056531;28;20452;-60
2022/12/04 05:41:03;;;;;;;18.00;13.57;;;3.40;99.90;;;;;;5056335;28;20449;-59
2022/12/04 05:43:31;;;;;;;21.10;14.30;;;3.50;99.90;;;;;;5056376;28;20486;-60
2022/12/04 05:46:01;;;;;;;23.43;14.93;;;3.50;99.90;;;;;;5056270;28;20469;-60
2022/12/04 05:48:28;;;;;;;24.83;14.97;;;3.40;99.90;;;;;;5055976;28;20445;-60
2022/12/04 05:50:56;;;;;;;23.17;16.77;;;3.30;99.90;;;;;;5056064;28;20974;-60
2022/12/04 05:53:25;;;;;;;28.03;17.00;;;3.30;99.90;;;;;;5055966;28;20459;-58
2022/12/04 05:55:56;;;;;;;21.77;15.10;;;3.30;99.90;;;;;;5056303;28;20485;-60
2022/12/04 05:58:23;;;;;;;23.57;15.70;;;3.30;99.90;;;;;;5055773;28;20495;-60
2022/12/04 06:00:51;;;;;;;23.60;14.87;;;3.40;99.90;;;;;;5055837;28;20449;-60
2022/12/04 06:03:18;;;;;;;22.40;14.20;;;3.50;99.90;;;;;;5056001;28;20511;-60
2022/12/04 06:05:46;;;;;;;19.90;13.60;;;3.50;99.90;;;;;;5055875;28;20469;-60
2022/12/04 06:08:13;;;;;;;18.03;12.20;;;3.40;99.90;;;;;;5055679;28;20456;-60
2022/12/04 06:10:42;;;;;;;22.90;14.80;;;3.40;99.90;;;;;;5056031;28;20793;-60
2022/12/04 06:13:10;;;;;;;20.10;15.50;;;3.40;99.90;;;;;;5055782;28;20453;-60
2022/12/04 06:15:38;;;;;;;22.50;14.20;;;3.30;99.90;;;;;;5055495;28;20998;-60
2022/12/04 06:18:05;;;;;;;24.67;14.50;;;3.30;99.90;;;;;;5055365;28;20481;-60
2022/12/04 06:20:33;;;;;;;20.03;13.10;;;3.30;99.90;;;;;;5055572;28;20451;-60
2022/12/04 06:23:00;;;;;;;20.27;14.17;;;3.30;99.90;;;;;;5055308;28;20445;-60
2022/12/04 06:25:28;;;;;;;24.20;14.43;;;3.30;99.90;;;;;;5054581;28;20550;-60
2022/12/04 06:27:56;;;;;;;23.10;15.27;;;3.30;99.90;;;;;;5055486;28;20499;-60
2022/12/04 06:30:24;;;;;;;19.43;14.63;;;3.30;99.90;;;;;;5055646;28;20471;-60
2022/12/04 06:32:51;;;;;;;22.37;15.30;;;3.40;99.90;;;;;;5055381;28;20452;-60
2022/12/04 06:35:19;;;;;;;24.17;14.70;;;3.50;99.90;;;;;;5055097;28;20554;-59
2022/12/04 06:37:46;;;;;;;25.03;15.67;;;3.40;99.90;;;;;;5055013;28;20571;-60
2022/12/04 06:40:13;;;;;;;22.70;15.60;;;3.30;99.90;;;;;;5055460;28;20548;-60
2022/12/04 06:42:41;;;;;;;23.60;15.77;;;3.30;99.90;;;;;;5054945;28;20932;-59
2022/12/04 06:45:11;;;;;;;26.70;16.47;;;3.30;99.90;;;;;;5055341;28;20822;-60
2022/12/04 06:47:39;;;;;;;22.60;14.43;;;3.30;99.90;;;;;;5054942;28;20445;-60
2022/12/04 06:50:07;;;;;;;27.20;16.43;;;3.30;99.90;;;;;;5055030;28;20450;-60
2022/12/04 06:52:35;;;;;;;21.17;16.17;;;3.30;99.90;;;;;;5054818;28;20967;-60
2022/12/04 06:55:02;;;;;;;20.17;15.53;;;3.30;99.90;;;;;;5054870;28;20457;-60
2022/12/04 06:57:29;;;;;;;24.87;16.10;;;3.30;99.90;;;;;;5054825;28;20481;-60
2022/12/04 06:59:57;;;;;;;21.90;15.70;;;3.30;99.90;;;;;;5054778;28;20445;-60
2022/12/04 07:02:26;;;;;;;24.43;16.03;;;3.40;99.90;;;;;;5054688;28;20453;-60
2022/12/04 07:04:56;;;;;;;23.40;14.23;;;3.50;99.90;;;;;;5054775;28;20481;-60
2022/12/04 07:07:23;;;;;;;23.33;16.87;;;3.60;99.90;;;;;;5054601;28;20438;-60
2022/12/04 07:09:51;;;;;;;22.60;15.87;;;3.60;99.90;;;;;;5054452;28;20449;-60
2022/12/04 07:12:18;;;;;;;28.20;17.07;;;3.60;99.90;;;;;;5054884;28;20444;-60
2022/12/04 07:14:45;;;;;;;21.83;15.90;;;3.50;99.90;;;;;;5054349;28;20459;-59
2022/12/04 07:17:13;;;;;;;27.27;15.60;;;3.40;99.90;;;;;;5054666;28;20481;-60
2022/12/04 07:19:42;;;;;;;23.57;17.50;;;3.40;99.90;;;;;;5054545;28;21331;-60
2022/12/04 07:22:09;;;;;;;22.33;16.17;;;3.50;99.90;;;;;;5054702;28;20518;-60
2022/12/04 07:24:37;;;;;;;25.37;17.10;;;3.40;99.90;;;;;;5054329;28;21219;-60
2022/12/04 07:27:04;;;;;;;21.93;14.20;;;3.40;99.90;;;;;;5054053;28;20832;-60
2022/12/04 07:29:32;;;;;;;21.00;15.50;;;3.50;99.90;;;;;;5053999;28;20452;-60
2022/12/04 07:31:59;;;;;;;19.30;14.60;;;3.50;99.90;;;;;;5054421;28;20453;-60
2022/12/04 07:34:27;;;;;;;25.00;16.60;;;3.50;99.90;;;;;;5054256;28;20452;-60
2022/12/04 07:36:55;;;;;;;24.27;14.90;;;3.50;99.90;;;;;;5054009;28;20480;-60
2022/12/04 07:39:23;;;;;;;27.10;17.07;;;3.40;99.90;;;;;;5053892;28;20931;-60
2022/12/04 07:41:50;;;;;;;27.30;17.10;;;3.50;99.90;;;;;;5054162;28;20792;-60
2022/12/04 07:44:17;;;;;;;21.60;15.57;;;3.60;99.90;;;;;;5054025;28;20499;-60
2022/12/04 07:46:45;;;;;;;26.10;17.40;;;3.60;99.90;;;;;;5053694;28;20534;-60
2022/12/04 07:49:13;;;;;;;25.43;15.43;;;3.60;99.90;;;;;;5053647;28;20495;-60
2022/12/04 07:51:40;;;;;;;22.67;14.80;;;3.60;99.90;;;;;;5054083;28;20809;-60
2022/12/04 07:54:09;;;;;;;26.67;16.77;;;3.60;99.90;;;;;;5053876;28;20463;-60
2022/12/04 07:56:36;;;;;;;23.73;15.30;;;3.60;99.90;;;;;;5053831;28;20555;-60
2022/12/04 07:59:03;;;;;;;23.20;14.57;;;3.50;99.90;;;;;;5053462;28;20441;-60
2022/12/04 08:01:31;;;;;;;23.87;15.10;;;3.50;99.90;;;;;;5054039;28;20480;-59
2022/12/04 08:04:02;;;;;;;24.73;15.70;;;3.60;99.90;;;;;;5053857;28;20819;-60
2022/12/04 08:06:32;;;;;;;26.47;16.30;;;3.60;99.90;;;;;;5054141;28;20472;-60
2022/12/04 08:08:59;;;;;;;23.30;16.43;;;3.60;99.90;;;;;;5053328;28;20436;-59
2022/12/04 08:11:29;;;;;;;21.80;13.97;;;3.60;99.90;;;;;;5053749;28;20453;-60
2022/12/04 08:13:57;;;;;;;27.77;17.50;;;3.60;99.90;;;;;;5053437;28;20449;-60
2022/12/04 08:16:25;;;;;;;25.33;15.57;;;3.60;99.90;;;;;;5053365;28;20505;-60
2022/12/04 08:18:54;;;;;;;21.80;15.30;;;3.60;99.90;;;;;;5053184;28;20445;-59
2022/12/04 08:21:23;;;;;;;21.00;15.03;;;3.70;99.90;;;;;;5053242;28;20928;-60
2022/12/04 08:23:52;;;;;;;21.43;13.70;;;3.70;99.90;;;;;;5053043;28;20449;-60
2022/12/04 08:26:21;;;;;;;22.30;15.57;;;3.70;99.90;;;;;;5052880;28;20485;-60
2022/12/04 08:28:52;;;;;;;25.10;16.60;;;3.70;99.90;;;;;;5053304;28;20453;-60
2022/12/04 08:31:22;;;;;;;28.07;16.20;;;3.70;99.90;;;;;;5053549;28;20426;-60
2022/12/04 08:33:50;;;;;;;20.80;15.60;;;3.50;99.90;;;;;;5053025;28;20808;-60
2022/12/04 08:36:20;;;;;;;21.40;13.83;;;3.60;99.90;;;;;;5053061;28;20473;-60
2022/12/04 08:38:49;;;;;;;24.40;15.80;;;3.60;99.90;;;;;;5052859;28;21042;-60
2022/12/04 08:41:18;;;;;;;21.70;14.57;;;3.60;99.90;;;;;;5053053;28;20453;-60
2022/12/04 08:43:45;;;;;;;20.00;14.40;;;3.60;99.90;;;;;;5053271;28;20958;-60
2022/12/04 08:46:17;;;;;;;16.33;12.10;;;3.60;99.90;;;;;;5052919;28;20480;-60
2022/12/04 08:48:45;;;;;;;19.40;12.80;;;3.50;99.90;;;;;;5053127;28;20430;-59
2022/12/04 08:51:14;;;;;;;20.70;14.17;;;3.60;99.90;;;;;;5053285;28;20471;-60
2022/12/04 08:53:41;;;;;;;20.47;14.13;;;3.60;99.90;;;;;;5052789;28;20453;-60
2022/12/04 08:56:09;;;;;;;17.20;12.83;;;3.70;99.90;;;;;;5053243;28;21002;-60
2022/12/04 08:58:37;;;;;;;22.27;14.00;;;3.60;99.90;;;;;;5053766;28;20870;-60
2022/12/04 09:01:06;;;;;;;20.80;14.63;;;3.70;99.90;;;;;;5056968;28;20453;-60
2022/12/04 09:03:35;;;;;;;17.43;14.23;;;3.70;99.90;;;;;;5057120;28;20445;-60
2022/12/04 09:06:04;;;;;;;20.70;14.80;;;3.60;99.90;;;;;;5057097;28;20469;-60
2022/12/04 09:08:31;;;;;;;28.80;14.77;;;3.60;99.90;;;;;;5056930;28;20445;-60
2022/12/04 09:11:04;;;;;;;20.40;13.53;;;3.70;99.90;;;;;;5056668;28;20449;-60
2022/12/04 09:13:31;;;;;;;20.70;13.40;;;3.80;99.90;;;;;;5056960;28;20520;-60
2022/12/04 09:16:03;;;;;;;21.40;15.20;;;3.80;99.90;;;;;;5056635;28;20480;-60
2022/12/04 09:18:31;;;;;;;20.60;14.20;;;3.80;99.90;;;;;;5056602;28;20487;-60
2022/12/04 09:21:02;;;;;;;21.47;16.33;;;3.70;99.90;;;;;;5056594;28;20821;-60
2022/12/04 09:23:29;;;;;;;21.70;14.33;;;3.90;99.90;;;;;;5056581;28;20861;-60
2022/12/04 09:25:57;;;;;;;24.40;14.50;;;3.80;99.90;;;;;;5056431;28;20485;-60
2022/12/04 09:28:24;;;;;;;19.50;13.13;;;3.80;99.90;;;;;;5056489;28;20920;-60
2022/12/04 09:31:02;;;;;;;23.30;14.30;;;3.80;99.90;;;;;;5056439;28;20448;-60
2022/12/04 09:33:30;;;;;;;18.97;15.10;;;3.80;99.90;;;;;;5056692;28;20429;-60
2022/12/04 09:36:01;;;;;;;21.33;15.20;;;3.80;99.90;;;;;;5056455;28;20567;-60
2022/12/04 09:38:29;;;;;;;20.70;14.00;;;3.90;99.90;;;;;;5055971;28;20852;-60
2022/12/04 09:41:03;;;;;;;22.73;15.10;;;3.80;99.90;;;;;;5056238;28;20448;-60
2022/12/04 09:43:36;;;;;;;23.10;16.00;;;3.80;99.90;;;;;;5056416;28;20425;-60
2022/12/04 09:46:09;;;;;;;22.10;14.10;;;3.80;99.90;;;;;;5055979;28;20990;-60
2022/12/04 09:48:41;;;;;;;27.20;15.90;;;3.70;99.90;;;;;;5056337;28;20840;-60
2022/12/04 09:51:17;;;;;;;22.20;15.60;;;3.70;99.90;;;;;;5055955;28;20436;-60
2022/12/04 09:53:48;;;;;;;18.43;14.77;;;3.70;99.90;;;;;;5056079;28;20429;-60
2022/12/04 09:56:19;;;;;;;19.53;14.87;;;3.70;99.90;;;;;;5056323;28;20817;-60
2022/12/04 09:58:50;;;;;;;24.87;16.23;;;3.80;99.90;;;;;;5055759;28;20513;-60
2022/12/04 10:01:23;;;;;;;29.13;16.40;;;3.90;99.90;;;;;;5055828;28;20429;-60
2022/12/04 10:03:51;;;;;;;26.57;15.90;;;3.90;99.90;;;;;;5056295;28;20440;-60
2022/12/04 10:06:23;;;;;;;20.30;15.77;;;3.90;99.90;;;;;;5055964;28;20473;-60
2022/12/04 10:08:57;;;;;;;23.40;16.03;;;3.90;99.90;;;;;;5055897;28;20790;-60
2022/12/04 10:11:37;;;;;;;24.57;16.07;;;3.90;99.90;;;;;;5055301;28;20760;-60
2022/12/04 10:14:40;;;;;;;23.23;17.47;;;3.70;99.90;;;;;;5055561;28;20926;-60
2022/12/04 10:17:31;;;;;;;25.80;16.77;;;3.70;99.90;;;;;;5055261;28;20464;-60
2022/12/04 10:20:07;;;;;;;19.83;15.37;;;3.70;99.90;;;;;;5055397;28;20441;-60
2022/12/04 10:22:45;;;;;;;21.80;16.07;;;3.80;99.90;;;;;;5055641;28;20483;-60
2022/12/04 10:25:17;;;;;;;21.23;16.67;;;3.90;99.90;;;;;;5055421;28;20995;-60
2022/12/04 10:27:51;;;;;;;23.33;17.30;;;3.90;99.90;;;;;;5055247;28;20421;-60
2022/12/04 10:30:21;;;;;;;26.23;16.90;;;3.90;99.90;;;;;;5055261;28;20426;-60
2022/12/04 10:32:58;;;;;;;26.60;15.50;;;3.90;99.90;;;;;;5055185;28;20786;-60
2022/12/04 10:35:28;;;;;;;26.63;18.50;;;4.00;99.90;;;;;;5055563;28;20457;-60
2022/12/04 10:38:00;;;;;;;23.37;16.10;;;4.00;99.90;;;;;;5055353;28;20477;-60
2022/12/04 10:40:32;;;;;;;28.00;18.33;;;3.90;99.90;;;;;;5055429;28;20509;-60
2022/12/04 10:43:06;;;;;;;21.30;15.13;;;3.90;99.90;;;;;;5055204;28;20437;-61
2022/12/04 10:45:33;;;;;;;23.80;16.47;;;3.90;99.90;;;;;;5055164;28;20535;-60
2022/12/04 10:48:01;;;;;;;23.53;17.47;;;3.90;99.90;;;;;;5054988;28;20441;-60
2022/12/04 10:50:28;;;;;;;22.57;18.00;;;4.00;99.90;;;;;;5054856;28;20449;-60
2022/12/04 10:52:57;;;;;;;27.27;17.73;;;3.90;99.90;;;;;;5054853;28;20457;-60
2022/12/04 10:55:29;;;;;;;26.83;18.47;;;3.80;99.90;;;;;;5054928;28;20473;-60
2022/12/04 10:57:57;;;;;;;30.27;18.73;;;3.90;99.90;;;;;;5054638;28;20539;-60
2022/12/04 11:00:27;;;;;;;28.30;18.53;;;4.00;99.90;;;;;;5054690;28;20931;-60
2022/12/04 11:02:57;;;;;;;30.77;19.03;;;3.90;99.90;;;;;;5055223;28;20426;-60
2022/12/04 11:05:28;;;;;;;28.50;18.67;;;4.00;99.90;;;;;;5054395;28;20501;-60
2022/12/04 11:07:58;;;;;;;28.90;17.60;;;4.00;99.90;;;;;;5054834;28;20421;-60
2022/12/04 11:10:35;;;;;;;28.87;17.80;;;4.00;99.90;;;;;;5054778;28;20430;-60
2022/12/04 11:13:05;;;;;;;31.10;18.90;;;4.00;99.90;;;;;;5054650;28;20774;-60
2022/12/04 11:15:36;;;;;;;26.60;17.57;;;4.00;99.90;;;;;;5054579;28;20469;-60
2022/12/04 11:18:15;;;;;;;23.57;16.10;;;4.00;99.90;;;;;;5054696;28;20515;-60
2022/12/04 11:20:49;;;;;;;24.43;16.23;;;4.00;99.90;;;;;;5054650;28;20492;-60
2022/12/04 11:23:18;;;;;;;24.77;15.67;;;4.00;99.90;;;;;;5054402;28;20433;-60
2022/12/04 11:25:48;;;;;;;26.47;17.60;;;3.90;99.90;;;;;;5054572;28;20489;-60
2022/12/04 11:28:20;;;;;;;24.70;17.23;;;3.90;99.90;;;;;;5054397;28;20461;-60
2022/12/04 11:30:50;;;;;;;32.60;17.53;;;3.90;99.90;;;;;;5054138;28;20434;-60
2022/12/04 11:33:23;;;;;;;22.13;14.93;;;3.90;99.90;;;;;;5054234;28;20507;-60
2022/12/04 11:35:54;;;;;;;24.20;17.43;;;3.90;99.90;;;;;;5054021;28;20465;-60
2022/12/04 11:38:26;;;;;;;24.63;16.07;;;3.90;99.90;;;;;;5053837;28;20477;-60
2022/12/04 11:40:56;;;;;;;26.53;16.70;;;3.90;99.90;;;;;;5054298;28;20790;-60
2022/12/04 11:43:26;;;;;;;25.37;16.27;;;4.00;99.90;;;;;;5054143;28;20856;-60
2022/12/04 11:45:59;;;;;;;27.00;17.40;;;4.00;99.90;;;;;;5053745;28;20866;-60
2022/12/04 11:48:27;;;;;;;25.47;17.43;;;3.90;99.90;;;;;;5053807;28;20499;-60
2022/12/04 11:51:02;;;;;;;27.60;16.23;;;3.90;99.90;;;;;;5053600;28;20460;-60
2022/12/04 11:53:42;;;;;;;22.57;17.53;;;3.90;99.90;;;;;;5053589;28;20430;-60
2022/12/04 11:56:24;;;;;;;21.97;14.00;;;4.00;99.90;;;;;;5053769;28;20874;-60
2022/12/04 11:59:23;;;;;;;23.73;14.80;;;4.00;99.90;;;;;;5053671;28;20465;-60
2022/12/04 12:01:56;;;;;;;22.00;16.57;;;4.00;99.90;;;;;;5052393;28;20453;-59
2022/12/04 12:04:55;;;;;;;28.47;16.60;;;3.90;99.90;;;;;;5053505;28;20426;-60
2022/12/04 12:07:36;;;;;;;23.70;15.63;;;3.80;99.90;;;;;;5053484;28;20429;-60
2022/12/04 12:10:12;;;;;;;22.97;15.20;;;3.80;99.90;;;;;;5053403;28;20437;-60
2022/12/04 12:12:52;;;;;;;21.40;13.67;;;3.90;99.90;;;;;;5053427;28;20927;-60
2022/12/04 12:15:26;;;;;;;28.80;16.13;;;3.90;99.90;;;;;;5053387;28;20898;-60
2022/12/04 12:18:10;;;;;;;20.60;15.23;;;4.00;99.90;;;;;;5053280;28;20825;-60
2022/12/04 12:20:41;;;;;;;23.53;14.33;;;3.90;99.90;;;;;;5053241;28;20905;-60
2022/12/04 12:23:26;;;;;;;21.13;15.63;;;3.90;99.90;;;;;;5053588;28;20444;-60
2022/12/04 12:26:04;;;;;;;23.43;15.43;;;4.10;99.90;;;;;;5053106;28;20493;-60
2022/12/04 12:28:46;;;;;;;26.90;15.90;;;4.10;99.90;;;;;;5053439;28;20445;-60
2022/12/04 12:31:35;;;;;;;23.13;14.77;;;3.90;99.90;;;;;;5053402;28;20440;-60
2022/12/04 12:34:08;;;;;;;23.83;15.73;;;4.00;99.90;;;;;;5052667;28;20444;-60
2022/12/04 12:36:41;;;;;;;21.73;14.77;;;4.00;99.90;;;;;;5052939;28;20469;-60
2022/12/04 12:39:14;;;;;;;25.90;16.57;;;4.00;99.90;;;;;;5053299;28;20482;-60
2022/12/04 12:41:47;;;;;;;24.70;15.20;;;4.00;99.90;;;;;;5053009;28;20433;-60
2022/12/04 12:44:21;;;;;;;23.40;14.67;;;4.00;99.90;;;;;;5053169;28;20429;-60
2022/12/04 12:46:51;;;;;;;19.87;15.17;;;4.00;99.90;;;;;;5053133;28;20504;-60
2022/12/04 12:49:21;;;;;;;20.20;16.33;;;4.10;99.90;;;;;;5053580;28;20445;-60
2022/12/04 12:51:54;;;;;;;20.93;15.67;;;4.00;99.90;;;;;;5052960;28;20951;-60
2022/12/04 12:54:33;;;;;;;21.27;16.37;;;4.20;99.90;;;;;;5052919;28;20453;-60
2022/12/04 12:57:07;;;;;;;24.80;16.07;;;4.00;99.90;;;;;;5052994;28;20982;-60
2022/12/04 12:59:34;;;;;;;25.97;17.70;;;4.00;99.90;;;;;;5052675;28;21017;-60
2022/12/04 13:02:06;;;;;;;25.10;15.63;;;4.20;99.90;;;;;;5052817;28;20540;-60
2022/12/04 13:04:40;;;;;;;26.67;16.70;;;4.30;99.90;;;;;;5053051;28;20430;-60